Oaktown, IN

7:16 PM EST on February 01, 2015 (GMT -0500)
Mount Carmel Municipal | Change Station
CLOSE
Current Station
Airport
Location: Mount Carmel,
Elevation: 430 ft
Nearby Weather Stations

Elev 430 ft 38.61 °N, 87.73 °W | Updated 21 minutes ago

Overcast
Overcast
43 °F
Feels Like 35 °F
N
15
Wind Variable Wind from WNW

Today
High -- | Low -- °F
--% Chance of Precip.
Yesterday
High -- | Low -- °F
Precip. -- in
7:55 AM 6:10 PM
Waxing Gibbous, 96% visible
Pressure 29.64 in
Visibility 7.0 miles
Clouds Overcast 1100 ft
Windchill 35 °F
Dew Point 37 °F
Humidity 81%
Rainfall 0.71 in
Snow Depth Not available.
UV 0 out of 12
Pollen .10 out of 12
Air Quality Not available.
Flu Activity Not available.
METAR KAJG 012355Z AUTO 29013KT 7SM OVC011 06/03 A2964 RMK AO2

More Conditions Fewer Conditions

Pressure 29.64 in
Visibility 7.0 miles
Clouds Overcast 1100 ft
Windchill 35 °F
Dew Point 37 °F
Humidity 81%
Rainfall 0.71 in
Snow Depth Not available.
UV 0 out of 12
Pollen .10 out of 12
Air Quality Not available.
Flu Activity Not available.
METAR KAJG 012355Z AUTO 29013KT 7SM OVC011 06/03 A2964 RMK AO2

More Conditions Fewer Conditions

10-Day Weather Forecast

Almanac

Astronomy

Feb. 01, 2015 Rise Set
Actual Time
Civil Twilight
Nautical Twilight
Astronomical Twilight
Moon
Length of Visible Light
Length of Day
Tomorrow will be .
, % of the Moon is Illuminated

Today's Extremes

State Highs State Lows

Community

WunderPhotos

Upload Photos

1,792,619 photos uploaded!

WunderBlogs® & News

Nearby

Air Quality

  Air Quality AQ Index Pollutant
Not available.

Snow Depth

Station Depth Elevation

Earthquake Activity

City Distance Mag. Time & Date
Minimum magnitude displayed is 2.5.

Coastal Water Temperatures

Place Temperature

Nearby Weather Stations